Station: Port Pirie Airport Aws

  Atmospheric Gas Attenuation - ITU Rec 676-11   --------------- db/100km ---------------
Date Time Temp RH % AH g/m3 Dew Point Wind Direction Speed kph Gust kph Barometer mB Rainfall Since 9am 24GHz 47GHz 76GHz 122GHz 134GHz 241GHz
03 08:50 19.6 45 7.6 7.4 30 33 1018.8 0 17.2 23.0 33.6 87.9 79.8 273.9
03 08:40 18.4 50 7.86 7.8 19 24 1019.8 0 17.8 23.7 35.1 91.8 84.2 289.2
03 08:30 17.4 52 7.71 7.5 26 33 1020.2 0 17.5 23.8 35.0 91.5 83.4 286.5
03 08:20 17.1 53 7.71 7.5 28 32 1019.8 0 17.5 23.8 35.1 91.8 83.7 287.5
03 08:10 16 56 7.63 7.2 28 32 1019.2 0 17.4 24.0 35.2 92.2 83.9 287.8
03 08:00 16 58 7.9 7.7 30 35 1019.6 0 18.0 24.4 36.3 95.0 87.3 299.7
03 07:50 15.4 60 7.88 7.7 30 32 1019.1 0 18.0 24.5 36.5 95.5 87.6 301.0
03 07:40 14.7 63 7.93 7.7 26 28 1019.2 0 18.1 24.8 37.0 96.9 89.1 305.9
03 07:30 14.9 61 7.77 7.5 28 35 1019.4 0 17.8 24.5 36.3 95.0 86.8 298.1
03 07:20 14.7 65 8.18 8.2 28 33 1018.6 0 18.6 25.2 37.9 99.4 92.2 317.0
03 07:10 14 67 8.08 8 32 33 1018.4 0 18.5 25.2 37.9 99.2 91.8 315.2
03 07:00 13.4 69 8.02 7.8 30 37 1019 0 18.4 25.3 37.9 99.4 91.7 315.0
03 06:50 12.9 72 8.12 8 30 32 1018.4 0 18.6 25.6 38.5 101.0 93.6 321.5
03 06:40 12.5 73 8.03 7.8 26 30 1018.6 0 18.4 25.5 38.4 100.6 92.9 319.0
03 06:30 12.1 75 8.04 7.8 26 32 1019.2 0 18.5 25.7 38.6 101.3 93.6 321.2
03 06:20 11.9 76 8.05 7.8 26 30 1018.6 0 18.5 25.8 38.8 101.6 93.9 322.4
03 06:10 11.8 76 8 7.7 26 26 1018.4 0 18.4 25.7 38.6 101.1 93.3 320.4
03 06:00 11.8 76 8 7.7 24 28 1019 0 18.4 25.7 38.6 101.2 93.4 320.6
03 05:50 11.8 75 7.89 7.5 24 28 1018.1 0 18.2 25.5 38.1 99.9 91.8 315.2
03 05:40 12 74 7.89 7.5 24 26 1018.1 0 18.2 25.4 38.0 99.7 91.6 314.4
03 05:30 12.2 73 7.88 7.5 24 28 1018.7 0 18.1 25.4 37.9 99.4 91.3 313.3
03 05:20 12.2 72 7.77 7.3 26 28 1018.1 0 17.9 25.2 37.5 98.1 89.8 308.1
03 05:00 12.7 70 7.79 7.4 26 32 1018.6 0 17.9 25.1 37.3 97.8 89.5 307.2
03 04:50 12.8 69 7.73 7.3 26 30 1018 0 17.8 25.0 37.0 97.0 88.6 303.9
03 04:40 12.9 68 7.66 7.1 28 30 1017.8 0 17.6 24.8 36.7 96.1 87.5 300.3
03 04:30 13.1 67 7.65 7.1 26 32 1018.4 0 17.6 24.8 36.6 95.8 87.2 299.2
03 04:20 13.3 65 7.51 6.9 28 33 1017.7 0 17.3 24.5 35.9 94.0 85.2 292.0
03 04:10 13.6 64 7.53 6.9 30 32 1017.8 0 17.3 24.4 35.9 93.9 85.1 291.8
03 04:00 13.7 64 7.58 7 28 33 1018.5 0 17.4 24.5 36.0 94.4 85.7 293.8
03 03:50 13.8 63 7.51 6.9 26 30 1018.1 0 17.3 24.3 35.7 93.5 84.6 290.2
03 03:40 13.7 64 7.58 7 28 32 1018 0 17.4 24.5 36.0 94.3 85.6 293.7
03 03:30 13.5 66 7.72 7.3 22 30 1018.9 0 17.7 24.8 36.7 96.1 87.7 301.0
03 03:20 13.4 68 7.91 7.6 22 24 1018.1 0 18.1 25.1 37.5 98.1 90.2 309.8
03 03:10 13.4 69 8.02 7.8 24 26 1018.1 0 18.4 25.3 37.9 99.3 91.7 314.8
03 03:00 13.4 71 8.25 8.3 20 24 1018.7 0 18.9 25.6 38.8 101.8 94.7 325.5
03 02:50 13.5 72 8.42 8.6 22 24 1018.2 0 19.2 25.9 39.4 103.4 96.8 332.8
03 02:40 13.4 73 8.49 8.7 24 28 1018.2 0 19.4 26.0 39.8 104.3 97.9 336.5
03 02:30 13.3 74 8.55 8.8 19 26 1019 0 19.5 26.2 40.1 105.2 98.8 339.9
03 02:20 13.4 74 8.6 8.9 17 22 1018.8 0 19.6 26.2 40.2 105.6 99.4 341.8
03 02:10 13.4 73 8.49 8.7 15 19 1018.6 0 19.4 26.0 39.8 104.4 97.9 336.6
03 02:00 13.4 73 8.49 8.7 22 28 1019 0 19.4 26.0 39.8 104.4 97.9 336.7
03 01:50 13.6 71 8.36 8.4 22 28 1018.4 0 19.1 25.8 39.2 102.7 95.9 329.7
03 01:40 13.5 72 8.42 8.6 20 22 1018.7 0 19.2 25.9 39.5 103.5 96.8 332.9
03 01:30 13.7 71 8.41 8.5 19 22 1019.3 0 19.2 25.8 39.4 103.2 96.5 331.8
03 01:20 13.9 71 8.51 8.7 19 22 1018.8 0 19.4 25.9 39.6 103.9 97.5 335.4
03 01:10 14.1 70 8.5 8.7 20 22 1018.7 0 19.4 25.8 39.5 103.6 97.1 334.1
03 01:00 14.3 70 8.6 8.9 22 28 1019.5 0 19.6 26.0 39.8 104.4 98.3 338.1
03 00:50 14.4 69 8.53 8.8 24 26 1019.2 0 19.4 25.8 39.5 103.5 97.2 334.3
03 00:40 14.6 69 8.63 9 20 22 1019.5 0 19.6 25.9 39.8 104.4 98.3 338.2
03 00:30 14.8 69 8.74 9.2 24 33 1019.9 0 19.8 26.1 40.2 105.3 99.5 342.5
03 00:20 14.6 70 8.76 9.2 24 26 1019.4 0 19.9 26.2 40.3 105.7 100.0 344.1
03 00:10 14.6 70 8.76 9.2 20 22 1019.4 0 19.9 26.2 40.3 105.7 100.0 344.1
03 00:00 14 73 8.81 9.2 17 20 1020 0 20.0 26.4 40.8 107.2 101.5 349.3
02 23:50 14.3 72 8.85 9.3 15 17 1019.8 0 20.1 26.4 40.8 107.2 101.6 349.7
02 23:40 14.5 71 8.83 9.3 15 17 1019.8 0 20.0 26.3 40.7 106.7 101.1 347.9
02 23:30 14.8 70 8.87 9.4 15 19 1020.3 0 20.1 26.3 40.7 106.7 101.3 348.6
02 23:20 14.9 69 8.79 9.3 17 19 1019.6 0 19.9 26.1 40.3 105.7 100.0 344.2
02 23:10 15.4 67 8.8 9.3 19 20 1019.6 0 19.9 26.0 40.1 105.1 99.5 342.5
02 23:00 15.7 66 8.83 9.4 22 26 1020.1 0 20.0 26.0 40.1 105.1 99.6 342.7
02 22:50 16 65 8.86 9.4 24 28 1019.6 0 20.0 25.9 40.0 105.0 99.5 342.7
02 22:40 16.1 66 9.05 9.8 24 26 1019.4 0 20.4 26.2 40.7 106.8 101.9 350.8
02 22:30 16.1 67 9.18 10 19 26 1020.1 0 20.7 26.4 41.3 108.3 103.6 357.0
02 22:20 16.3 66 9.16 9.9 19 20 1019.1 0 20.7 26.3 41.0 107.7 103.0 354.9
02 22:10 16.6 65 9.18 10 20 22 1019.1 0 20.7 26.2 41.0 107.5 102.9 354.5
02 22:00 16.9 64 9.2 10.1 22 28 1019.5 0 20.7 26.2 40.9 107.3 102.8 354.1
02 21:50 17.2 64 9.37 10.3 24 28 1018.7 0 21.1 26.3 41.4 108.6 104.5 360.3
02 21:40 17.3 64 9.43 10.4 19 20 1018.5 0 21.2 26.4 41.6 109.1 105.1 362.5
02 21:30 17.2 66 9.66 10.8 15 17 1019 0 21.7 26.8 42.5 111.7 108.3 373.6
02 21:20 17.3 65 9.58 10.7 15 15 1018.4 0 21.5 26.6 42.1 110.7 107.1 369.3
02 21:10 17.7 64 9.66 10.8 17 19 1018.1 0 21.6 26.6 42.2 110.9 107.6 371.0
02 21:00 18.3 62 9.69 10.9 20 30 1018.8 0 21.7 26.5 42.1 110.5 107.2 369.8
02 20:50 18.8 60 9.66 10.9 30 32 1017.6 0 21.6 26.3 41.6 109.4 106.0 365.7
02 20:40 18.8 63 10.15 11.6 26 30 1017.7 0 22.6 27.1 43.6 114.5 112.4 388.0
02 20:30 18.5 70 11.07 12.9 28 35 1018 0 24.6 28.7 47.5 124.9 125.1 432.4
02 20:20 18.6 69 10.98 12.8 28 33 1017 0 24.4 28.5 47.0 123.7 123.6 427.2
02 20:10 18.8 68 10.95 12.8 32 33 1016.8 0 24.3 28.3 46.7 123.0 122.9 424.7
02 20:00 19 66 10.75 12.5 35 44 1017.1 0 23.9 28.0 45.8 120.6 119.9 414.4
02 19:50 19.4 64 10.68 12.4 33 39 1016.7 0 23.7 27.7 45.3 119.2 118.3 408.9
02 19:40 19.5 63 10.57 12.3 39 43 1016.6 0 23.5 27.5 44.8 117.8 116.7 403.3
02 19:30 19.6 63 10.63 12.4 43 56 1017 0 23.6 27.6 45.0 118.4 117.4 405.7
02 19:20 19.7 62 10.53 12.2 48 52 1015.9 0 23.4 27.3 44.5 117.0 115.8 400.2
02 19:10 19.8 61 10.42 12.1 44 50 1016.1 0 23.1 27.1 44.0 115.7 114.3 394.8
02 19:00 19.9 60 10.31 11.9 41 52 1016.6 0 22.9 27.0 43.5 114.5 112.8 389.5
02 18:50 20.7 61 10.98 12.9 41 44 1015.9 0 24.3 27.7 45.7 120.3 120.2 415.6
02 18:40 20.5 61 10.85 12.7 43 50 1015.6 0 24.0 27.6 45.3 119.2 118.8 410.6
02 18:30 20.5 62 11.03 13 46 56 1016.4 0 24.4 27.9 46.1 121.2 121.2 419.1
02 18:20 21.1 61 11.24 13.3 43 50 1015.6 0 24.8 28.0 46.5 122.4 122.9 425.3
02 18:10 21.2 59 10.93 12.9 46 52 1015.4 0 24.1 27.5 45.2 119.0 118.7 410.6
02 18:00 21.8 58 11.13 13.2 43 52 1016.1 0 24.5 27.7 45.7 120.2 120.5 416.7
02 17:50 21.9 56 10.81 12.7 43 52 1015.3 0 23.9 27.1 44.3 116.7 116.1 401.5
02 17:40 21.7 59 11.25 13.3 44 50 1015.3 0 24.8 27.8 46.2 121.6 122.1 422.4
02 17:30 21.3 58 10.81 12.7 46 57 1015.9 0 23.9 27.3 44.7 117.6 117.1 404.8
02 17:20 21.5 59 11.12 13.2 44 50 1015 0 24.5 27.7 45.8 120.5 120.7 417.5
02 17:10 21.8 56 10.74 12.6 43 48 1015 0 23.7 27.0 44.1 116.0 115.4 398.8
02 17:00 22 54 10.48 12.3 43 54 1015.3 0 23.1 26.5 43.0 113.1 111.8 386.4
02 16:50 21.5 55 10.37 12.1 46 50 1014.8 0 22.9 26.5 42.8 112.6 111.1 383.8
02 16:40 23 48 9.87 11.4 48 54 1015.3 0 21.8 25.3 40.2 105.6 102.9 355.3
02 16:30 22.8 51 10.36 12.1 44 54 1015.7 0 22.9 26.1 42.1 110.8 109.2 377.4
02 16:20 23.2 49 10.19 11.9 48 56 1014.9 0 22.5 25.7 41.3 108.5 106.5 368.0
02 16:10 22.8 52 10.57 12.4 44 52 1014.9 0 23.3 26.4 42.9 112.9 111.8 386.3

Last Refresh: 03-Dec-2021 09:00:36

Bureau of Meteorology